Time;durP1;ratioP1;P1;durP2;ratioP2;P2;SDS_P1;SDS_P2;PMS_P1;PMS_P2;Temp;Humidity;BMP_temperature;BMP_pressure;BME280_temperature;BME280_humidity;BME280_pressure;Samples;Min_cycle;Max_cycle;Signal;HPM_P1;HPM_P2
2023/12/08 00:00:59;;;;;;;34.33;14.47;;;;;;;;;;5025937;28;20030;-62
2023/12/08 00:03:24;;;;;;;38.90;15.48;;;;;;;;;;5023012;28;20018;-58
2023/12/08 00:05:49;;;;;;;35.88;15.23;;;;;;;;;;5021199;28;20018;-58
2023/12/08 00:08:14;;;;;;;41.15;15.98;;;;;;;;;;5030072;28;20073;-59
2023/12/08 00:10:40;;;;;;;39.58;16.05;;;;;;;;;;5029994;28;20030;-59
2023/12/08 00:13:05;;;;;;;44.22;16.30;;;;;;;;;;5023217;28;20038;-58
2023/12/08 00:15:30;;;;;;;43.50;16.37;;;;;;;;;;5022148;28;20049;-60
2023/12/08 00:17:56;;;;;;;40.75;14.93;;;;;;;;;;5027142;28;20095;-60
2023/12/08 00:20:21;;;;;;;38.50;16.00;;;;;;;;;;5022291;28;20025;-60
2023/12/08 00:22:46;;;;;;;44.85;16.10;;;;;;;;;;5025714;28;20411;-60
2023/12/08 00:25:12;;;;;;;45.10;16.80;;;;;;;;;;5016146;28;20026;-60
2023/12/08 00:27:37;;;;;;;39.95;16.30;;;;;;;;;;5027656;28;20025;-60
2023/12/08 00:30:04;;;;;;;40.50;15.52;;;;;;;;;;5014391;28;20516;-60
2023/12/08 00:32:29;;;;;;;44.10;17.42;;;;;;;;;;5026979;28;20037;-60
2023/12/08 00:34:54;;;;;;;44.92;18.00;;;;;;;;;;5014761;28;20105;-60
2023/12/08 00:37:20;;;;;;;43.35;17.63;;;;;;;;;;5029503;28;20022;-60
2023/12/08 00:39:46;;;;;;;45.75;17.70;;;;;;;;;;5029578;28;20512;-59
2023/12/08 00:42:11;;;;;;;39.40;16.60;;;;;;;;;;5028468;28;20075;-59
2023/12/08 00:44:36;;;;;;;38.55;16.70;;;;;;;;;;5028943;28;20394;-60
2023/12/08 00:47:01;;;;;;;45.60;17.98;;;;;;;;;;5027289;28;20033;-60
2023/12/08 00:49:26;;;;;;;39.43;17.07;;;;;;;;;;5025652;28;20061;-60
2023/12/08 00:51:51;;;;;;;46.80;17.77;;;;;;;;;;5022364;28;20100;-60
2023/12/08 00:54:16;;;;;;;37.88;15.32;;;;;;;;;;5023189;28;20505;-59
2023/12/08 00:56:42;;;;;;;40.00;16.08;;;;;;;;;;5015207;28;20073;-60
2023/12/08 00:59:07;;;;;;;40.17;16.27;;;;;;;;;;5030411;28;20065;-59
2023/12/08 01:01:32;;;;;;;39.40;15.45;;;;;;;;;;5030997;28;20056;-59
2023/12/08 01:03:57;;;;;;;43.08;16.65;;;;;;;;;;5029919;28;20017;-59
2023/12/08 01:06:22;;;;;;;43.35;17.98;;;;;;;;;;5025445;28;20481;-59
2023/12/08 01:08:47;;;;;;;40.63;16.87;;;;;;;;;;5023368;28;20049;-59
2023/12/08 01:11:13;;;;;;;42.07;16.80;;;;;;;;;;5027151;28;20029;-59
2023/12/08 01:13:38;;;;;;;41.65;16.65;;;;;;;;;;5030503;28;20489;-59
2023/12/08 01:16:06;;;;;;;42.17;17.63;;;;;;;;;;5029834;28;20017;-60
2023/12/08 01:18:31;;;;;;;39.35;16.42;;;;;;;;;;5032366;28;20478;-59
2023/12/08 01:20:56;;;;;;;39.47;17.07;;;;;;;;;;5032266;28;20017;-59
2023/12/08 01:23:22;;;;;;;36.88;16.10;;;;;;;;;;5023633;28;20087;-60
2023/12/08 01:25:47;;;;;;;39.13;16.67;;;;;;;;;;5022315;28;20029;-59
2023/12/08 01:28:12;;;;;;;42.80;16.67;;;;;;;;;;5029644;28;20509;-59
2023/12/08 01:30:37;;;;;;;39.10;16.52;;;;;;;;;;5031880;28;20021;-59
2023/12/08 01:33:03;;;;;;;34.00;14.20;;;;;;;;;;5027928;28;20030;-59
2023/12/08 01:35:28;;;;;;;40.33;15.18;;;;;;;;;;5020789;28;20057;-59
2023/12/08 01:37:53;;;;;;;37.20;16.15;;;;;;;;;;5031671;28;20018;-59
2023/12/08 01:40:19;;;;;;;38.63;14.82;;;;;;;;;;5026212;28;20033;-60
2023/12/08 01:42:44;;;;;;;35.90;15.33;;;;;;;;;;5024919;28;20025;-60
2023/12/08 01:45:09;;;;;;;35.42;14.40;;;;;;;;;;5019434;28;20026;-59
2023/12/08 01:47:35;;;;;;;41.83;15.93;;;;;;;;;;5032341;28;20096;-59
2023/12/08 01:50:01;;;;;;;40.45;16.08;;;;;;;;;;5032136;28;20017;-59
2023/12/08 01:52:26;;;;;;;35.42;14.57;;;;;;;;;;5030201;28;20056;-59
2023/12/08 01:54:53;;;;;;;35.85;14.05;;;;;;;;;;5021414;28;20080;-59
2023/12/08 01:57:19;;;;;;;34.95;13.75;;;;;;;;;;5026080;28;20025;-59
2023/12/08 01:59:45;;;;;;;38.70;14.40;;;;;;;;;;5020302;28;20462;-60
2023/12/08 02:02:10;;;;;;;32.67;14.02;;;;;;;;;;5029982;28;20070;-59
2023/12/08 02:04:36;;;;;;;36.15;14.25;;;;;;;;;;5021511;28;20025;-59
2023/12/08 02:07:01;;;;;;;35.97;14.82;;;;;;;;;;5025957;28;20033;-59
2023/12/08 02:09:26;;;;;;;32.35;13.73;;;;;;;;;;5015635;28;20500;-59
2023/12/08 02:11:51;;;;;;;39.00;14.65;;;;;;;;;;5031604;28;20021;-59
2023/12/08 02:14:17;;;;;;;32.23;13.73;;;;;;;;;;5028813;28;20464;-59
2023/12/08 02:16:50;;;;;;;32.40;12.63;;;;;;;;;;5029763;28;20043;-59
2023/12/08 02:19:16;;;;;;;32.40;13.15;;;;;;;;;;5019781;28;20041;-59
2023/12/08 02:21:41;;;;;;;30.33;13.25;;;;;;;;;;5017128;28;20075;-59
2023/12/08 02:24:07;;;;;;;31.85;12.52;;;;;;;;;;5023001;28;20033;-60
2023/12/08 02:26:32;;;;;;;31.57;12.87;;;;;;;;;;5031205;28;20013;-59
2023/12/08 02:28:57;;;;;;;31.97;12.60;;;;;;;;;;5031765;28;20018;-60
2023/12/08 02:31:25;;;;;;;29.43;11.47;;;;;;;;;;5023651;28;20486;-60
2023/12/08 02:33:51;;;;;;;32.53;13.57;;;;;;;;;;5022981;28;20488;-60
2023/12/08 02:36:17;;;;;;;35.50;13.95;;;;;;;;;;5016978;28;20374;-59
2023/12/08 02:38:42;;;;;;;31.17;13.50;;;;;;;;;;5031080;28;20037;-60
2023/12/08 02:41:07;;;;;;;33.95;13.88;;;;;;;;;;5028343;28;20393;-59
2023/12/08 02:43:33;;;;;;;34.38;12.80;;;;;;;;;;5020322;28;20080;-58
2023/12/08 02:45:58;;;;;;;32.35;14.48;;;;;;;;;;5025319;28;20185;-60
2023/12/08 02:48:23;;;;;;;33.42;14.50;;;;;;;;;;5026421;28;20036;-59
2023/12/08 02:50:48;;;;;;;34.22;13.98;;;;;;;;;;5020841;28;20033;-59
2023/12/08 02:53:13;;;;;;;29.88;12.93;;;;;;;;;;5021485;28;20061;-59
2023/12/08 02:55:38;;;;;;;29.90;12.98;;;;;;;;;;5031065;28;20509;-59
2023/12/08 02:58:04;;;;;;;34.37;13.70;;;;;;;;;;5030819;28;20021;-59
2023/12/08 03:00:29;;;;;;;33.40;13.20;;;;;;;;;;5030168;28;20493;-60
2023/12/08 03:02:54;;;;;;;33.33;14.23;;;;;;;;;;5014141;28;20081;-60
2023/12/08 03:05:19;;;;;;;33.17;13.43;;;;;;;;;;5026495;28;20017;-60
2023/12/08 03:07:44;;;;;;;33.67;13.68;;;;;;;;;;5028033;28;20401;-60
2023/12/08 03:10:10;;;;;;;33.20;14.10;;;;;;;;;;5030423;28;20057;-59
2023/12/08 03:12:35;;;;;;;32.63;14.48;;;;;;;;;;5022704;28;20411;-60
2023/12/08 03:15:00;;;;;;;31.60;13.17;;;;;;;;;;5013760;28;20100;-59
2023/12/08 03:17:25;;;;;;;29.23;12.83;;;;;;;;;;5031401;28;20108;-59
2023/12/08 03:19:50;;;;;;;33.42;13.13;;;;;;;;;;5031311;28;20022;-59
2023/12/08 03:22:15;;;;;;;33.97;13.57;;;;;;;;;;5027080;28;20025;-59
2023/12/08 03:24:40;;;;;;;32.03;13.15;;;;;;;;;;5017082;28;20052;-59
2023/12/08 03:27:06;;;;;;;32.17;12.67;;;;;;;;;;5024365;28;20025;-59
2023/12/08 03:29:31;;;;;;;29.42;12.20;;;;;;;;;;5030523;28;20045;-59
2023/12/08 03:31:56;;;;;;;30.85;12.65;;;;;;;;;;5029096;28;20034;-60
2023/12/08 03:34:21;;;;;;;27.80;12.00;;;;;;;;;;5042214;28;20121;-60
2023/12/08 03:36:46;;;;;;;25.52;10.82;;;;;;;;;;5046542;28;20029;-59
2023/12/08 03:39:11;;;;;;;28.40;12.18;;;;;;;;;;5028534;28;20508;-59
2023/12/08 03:41:36;;;;;;;27.73;11.97;;;;;;;;;;5020289;28;20032;-60
2023/12/08 03:44:02;;;;;;;23.25;10.45;;;;;;;;;;5027473;28;20040;-59
2023/12/08 03:46:27;;;;;;;26.35;11.20;;;;;;;;;;5030526;28;20436;-59
2023/12/08 03:48:52;;;;;;;23.30;10.70;;;;;;;;;;5022935;28;20106;-60
2023/12/08 03:51:17;;;;;;;27.97;11.13;;;;;;;;;;5022142;28;20057;-59
2023/12/08 03:53:42;;;;;;;23.30;10.20;;;;;;;;;;5020429;28;20029;-59
2023/12/08 03:56:07;;;;;;;27.63;11.67;;;;;;;;;;5018847;28;20033;-59
2023/12/08 03:58:33;;;;;;;25.40;11.00;;;;;;;;;;5030163;28;20423;-59
2023/12/08 04:00:58;;;;;;;24.58;10.23;;;;;;;;;;5026430;28;21345;-59
2023/12/08 04:03:23;;;;;;;22.80;10.35;;;;;;;;;;5026799;28;20087;-59
2023/12/08 04:05:49;;;;;;;23.23;10.57;;;;;;;;;;5021061;28;20045;-59
2023/12/08 04:08:14;;;;;;;23.50;10.33;;;;;;;;;;5029180;28;20539;-60
2023/12/08 04:10:40;;;;;;;25.20;10.38;;;;;;;;;;5029553;28;20971;-60
2023/12/08 04:13:05;;;;;;;23.15;9.52;;;;;;;;;;5022161;28;20026;-59
2023/12/08 04:15:30;;;;;;;27.73;11.25;;;;;;;;;;5019370;28;20382;-59
2023/12/08 04:17:55;;;;;;;24.70;10.20;;;;;;;;;;5029875;28;20030;-59
2023/12/08 04:20:20;;;;;;;23.45;9.82;;;;;;;;;;5019405;28;20053;-59
2023/12/08 04:22:45;;;;;;;24.93;9.80;;;;;;;;;;5022604;28;20030;-59
2023/12/08 04:25:12;;;;;;;25.10;10.57;;;;;;;;;;5023267;28;20124;-59
2023/12/08 04:27:37;;;;;;;23.95;9.75;;;;;;;;;;5024164;28;20052;-59
2023/12/08 04:30:03;;;;;;;23.67;9.95;;;;;;;;;;5028971;28;20025;-59
2023/12/08 04:32:28;;;;;;;22.10;10.52;;;;;;;;;;5029913;28;20049;-59
2023/12/08 04:34:53;;;;;;;21.95;9.18;;;;;;;;;;5025050;28;20033;-59
2023/12/08 04:37:18;;;;;;;21.77;9.85;;;;;;;;;;5023583;28;20460;-59
2023/12/08 04:39:43;;;;;;;27.15;11.02;;;;;;;;;;5029797;28;20028;-58
2023/12/08 04:42:08;;;;;;;22.83;10.35;;;;;;;;;;5025187;28;20049;-59
2023/12/08 04:44:33;;;;;;;22.40;9.87;;;;;;;;;;5032064;28;20441;-59
2023/12/08 04:46:59;;;;;;;22.47;9.87;;;;;;;;;;5032917;28;20037;-59
2023/12/08 04:49:24;;;;;;;18.92;9.07;;;;;;;;;;5031514;28;20025;-59
2023/12/08 04:51:49;;;;;;;23.08;10.02;;;;;;;;;;5030249;28;20048;-58
2023/12/08 04:54:15;;;;;;;23.33;9.65;;;;;;;;;;5017180;28;20100;-60
2023/12/08 04:56:40;;;;;;;20.45;8.70;;;;;;;;;;5029162;28;20085;-60
2023/12/08 04:59:07;;;;;;;22.67;9.05;;;;;;;;;;5023118;28;20038;-60
2023/12/08 05:01:32;;;;;;;19.90;8.32;;;;;;;;;;5017753;28;20057;-60
2023/12/08 05:03:57;;;;;;;17.30;7.75;;;;;;;;;;5020772;28;20052;-60
2023/12/08 05:06:26;;;;;;;17.95;7.80;;;;;;;;;;5013206;28;20041;-60
2023/12/08 05:08:51;;;;;;;18.67;8.07;;;;;;;;;;5028097;28;20029;-60
2023/12/08 05:11:16;;;;;;;16.92;7.65;;;;;;;;;;5021199;28;20114;-60
2023/12/08 05:13:41;;;;;;;17.27;7.57;;;;;;;;;;5021247;28;20049;-60
2023/12/08 05:16:09;;;;;;;16.83;7.80;;;;;;;;;;5020078;28;20365;-60
2023/12/08 05:18:35;;;;;;;18.17;7.88;;;;;;;;;;5022935;28;20060;-60
2023/12/08 05:21:00;;;;;;;17.20;6.97;;;;;;;;;;5021547;28;20107;-60
2023/12/08 05:23:25;;;;;;;17.25;7.28;;;;;;;;;;5021495;28;20714;-61
2023/12/08 05:25:50;;;;;;;17.55;7.32;;;;;;;;;;5028548;28;20066;-60
2023/12/08 05:28:16;;;;;;;15.75;7.15;;;;;;;;;;5017107;28;20061;-60
2023/12/08 05:30:42;;;;;;;15.30;6.93;;;;;;;;;;5021434;28;20028;-59
2023/12/08 05:33:07;;;;;;;15.00;6.90;;;;;;;;;;5016789;28;20033;-61
2023/12/08 05:35:32;;;;;;;16.98;7.38;;;;;;;;;;5014311;28;20041;-61
2023/12/08 05:37:57;;;;;;;15.00;6.47;;;;;;;;;;5017741;28;20096;-61
2023/12/08 05:40:23;;;;;;;19.10;8.27;;;;;;;;;;5014152;28;20034;-61
2023/12/08 05:42:49;;;;;;;16.17;7.10;;;;;;;;;;5010122;28;20026;-59
2023/12/08 05:45:14;;;;;;;15.10;7.03;;;;;;;;;;5029683;28;20021;-59
2023/12/08 05:47:39;;;;;;;15.38;7.15;;;;;;;;;;5014848;28;20605;-61
2023/12/08 05:50:04;;;;;;;14.63;6.60;;;;;;;;;;5028753;28;20030;-59
2023/12/08 05:52:30;;;;;;;14.18;6.18;;;;;;;;;;5029439;28;20073;-63
2023/12/08 05:54:55;;;;;;;15.03;6.77;;;;;;;;;;5038616;28;20079;-60
2023/12/08 05:57:20;;;;;;;16.00;7.88;;;;;;;;;;5031615;28;20120;-62
2023/12/08 05:59:45;;;;;;;15.57;6.43;;;;;;;;;;5035494;28;20037;-63
2023/12/08 06:02:10;;;;;;;16.80;6.75;;;;;;;;;;5023509;28;20053;-60
2023/12/08 06:04:35;;;;;;;16.10;6.63;;;;;;;;;;5013675;28;20421;-60
2023/12/08 06:07:00;;;;;;;15.02;6.68;;;;;;;;;;5020210;28;20017;-60
2023/12/08 06:09:25;;;;;;;14.10;6.53;;;;;;;;;;5024113;28;20025;-61
2023/12/08 06:11:51;;;;;;;33.03;17.85;;;;;;;;;;5014939;28;20913;-61
2023/12/08 06:14:16;;;;;;;13.77;6.60;;;;;;;;;;5016546;28;20072;-61
2023/12/08 06:16:41;;;;;;;14.20;5.88;;;;;;;;;;5019010;28;20182;-61
2023/12/08 06:19:06;;;;;;;16.80;6.23;;;;;;;;;;5022341;28;20034;-61
2023/12/08 06:21:32;;;;;;;15.10;6.13;;;;;;;;;;5025617;28;20100;-61
2023/12/08 06:23:57;;;;;;;13.33;5.73;;;;;;;;;;5021739;28;20460;-60
2023/12/08 06:26:24;;;;;;;14.05;5.78;;;;;;;;;;5024228;28;20032;-61
2023/12/08 06:28:49;;;;;;;14.20;5.97;;;;;;;;;;5013662;28;20021;-61
2023/12/08 06:31:14;;;;;;;13.25;5.57;;;;;;;;;;5020565;28;20366;-60
2023/12/08 06:33:40;;;;;;;14.13;6.30;;;;;;;;;;5016588;28;20789;-60
2023/12/08 06:36:05;;;;;;;14.98;6.15;;;;;;;;;;5025951;28;20029;-61
2023/12/08 06:38:31;;;;;;;15.27;6.45;;;;;;;;;;5017964;28;20482;-61
2023/12/08 06:40:56;;;;;;;15.63;6.18;;;;;;;;;;5013766;28;20030;-61
2023/12/08 06:43:21;;;;;;;14.47;5.83;;;;;;;;;;5029676;28;20116;-60
2023/12/08 06:45:46;;;;;;;15.15;6.60;;;;;;;;;;5028032;28;20033;-61
2023/12/08 06:48:11;;;;;;;15.85;6.63;;;;;;;;;;5027751;28;20112;-60
2023/12/08 06:50:37;;;;;;;15.85;6.40;;;;;;;;;;5025392;28;20026;-61
2023/12/08 06:53:02;;;;;;;15.57;6.28;;;;;;;;;;5025974;28;20032;-61
2023/12/08 06:55:27;;;;;;;16.40;6.93;;;;;;;;;;5022211;28;20033;-61
2023/12/08 06:57:52;;;;;;;16.33;6.53;;;;;;;;;;5025538;28;20021;-61
2023/12/08 07:00:17;;;;;;;15.32;6.47;;;;;;;;;;5025471;28;20033;-61
2023/12/08 07:02:44;;;;;;;16.67;7.07;;;;;;;;;;5027331;28;20029;-60
2023/12/08 07:05:09;;;;;;;16.73;6.85;;;;;;;;;;5028037;28;20460;-61
2023/12/08 07:07:34;;;;;;;15.47;6.30;;;;;;;;;;5026366;28;20037;-61
2023/12/08 07:10:00;;;;;;;14.88;5.97;;;;;;;;;;5025036;28;20021;-61
2023/12/08 07:12:25;;;;;;;15.30;5.87;;;;;;;;;;5026002;28;20052;-59
2023/12/08 07:14:50;;;;;;;13.30;6.07;;;;;;;;;;5026397;28;20024;-61
2023/12/08 07:17:15;;;;;;;13.70;5.67;;;;;;;;;;5021036;28;20018;-61
2023/12/08 07:19:41;;;;;;;13.07;6.13;;;;;;;;;;5024710;28;20452;-61
2023/12/08 07:22:06;;;;;;;16.50;6.22;;;;;;;;;;5015843;28;20093;-60
2023/12/08 07:24:31;;;;;;;13.98;6.20;;;;;;;;;;5018742;28;20092;-61
2023/12/08 07:26:56;;;;;;;14.15;6.25;;;;;;;;;;5020859;28;20025;-60
2023/12/08 07:29:23;;;;;;;13.85;6.07;;;;;;;;;;5025002;28;20108;-61
2023/12/08 07:31:48;;;;;;;13.52;6.25;;;;;;;;;;5027795;28;20018;-61
2023/12/08 07:34:13;;;;;;;12.83;5.73;;;;;;;;;;5022182;28;20444;-59
2023/12/08 07:36:38;;;;;;;14.13;6.10;;;;;;;;;;5016095;28;20029;-61
2023/12/08 07:39:03;;;;;;;16.93;6.60;;;;;;;;;;5019434;28;20028;-60
2023/12/08 07:41:28;;;;;;;16.13;6.32;;;;;;;;;;5018106;28;20033;-60
2023/12/08 07:43:55;;;;;;;16.35;6.40;;;;;;;;;;5026329;28;20048;-59
2023/12/08 07:46:21;;;;;;;15.75;6.03;;;;;;;;;;5027459;28;20025;-60
2023/12/08 07:48:46;;;;;;;16.95;7.00;;;;;;;;;;5021673;28;20080;-59
2023/12/08 07:51:11;;;;;;;15.13;6.75;;;;;;;;;;5011930;28;20506;-59
2023/12/08 07:53:36;;;;;;;15.13;6.68;;;;;;;;;;5026106;28;20033;-60
2023/12/08 07:56:02;;;;;;;15.30;5.97;;;;;;;;;;5010309;28;20014;-59
2023/12/08 07:58:27;;;;;;;15.27;6.60;;;;;;;;;;5023432;28;20106;-60
2023/12/08 08:00:52;;;;;;;18.90;7.57;;;;;;;;;;5016850;28;20021;-62
2023/12/08 08:03:17;;;;;;;16.55;7.05;;;;;;;;;;5021974;28;20033;-60
2023/12/08 08:05:43;;;;;;;14.57;6.38;;;;;;;;;;5014321;28;20053;-60
2023/12/08 08:08:09;;;;;;;16.10;6.67;;;;;;;;;;5014165;28;20022;-60
2023/12/08 08:10:34;;;;;;;17.05;7.20;;;;;;;;;;5015295;28;20022;-61
2023/12/08 08:12:59;;;;;;;17.40;7.53;;;;;;;;;;5035586;28;20022;-60
2023/12/08 08:15:24;;;;;;;15.03;6.43;;;;;;;;;;5039614;28;20060;-61
2023/12/08 08:17:49;;;;;;;17.25;7.30;;;;;;;;;;5035345;28;20024;-61
2023/12/08 08:20:14;;;;;;;17.27;6.63;;;;;;;;;;5021888;28;20040;-61
2023/12/08 08:22:39;;;;;;;16.90;6.93;;;;;;;;;;5036544;28;20021;-62
2023/12/08 08:25:05;;;;;;;16.80;6.97;;;;;;;;;;5028900;28;20037;-58
2023/12/08 08:27:31;;;;;;;17.10;6.85;;;;;;;;;;5014510;28;20025;-60
2023/12/08 08:29:57;;;;;;;16.02;7.10;;;;;;;;;;5013897;28;20029;-61
2023/12/08 08:32:22;;;;;;;17.53;8.87;;;;;;;;;;5012241;28;20018;-60
2023/12/08 08:34:47;;;;;;;16.05;6.30;;;;;;;;;;5016795;28;20036;-61
2023/12/08 08:37:12;;;;;;;17.17;7.18;;;;;;;;;;5015616;28;20026;-61
2023/12/08 08:39:37;;;;;;;17.75;7.38;;;;;;;;;;5031153;28;20837;-61
2023/12/08 08:42:03;;;;;;;15.83;6.70;;;;;;;;;;5025306;28;20044;-62
2023/12/08 08:44:28;;;;;;;19.95;12.38;;;;;;;;;;5017258;28;20058;-60
2023/12/08 08:46:53;;;;;;;19.35;7.13;;;;;;;;;;5017805;28;20486;-61
2023/12/08 08:49:19;;;;;;;19.15;7.22;;;;;;;;;;5022274;28;20026;-61
2023/12/08 08:51:44;;;;;;;16.80;7.20;;;;;;;;;;5032317;28;20030;-61
2023/12/08 08:54:09;;;;;;;17.00;6.67;;;;;;;;;;5026778;28;20027;-60
2023/12/08 08:56:35;;;;;;;19.23;7.20;;;;;;;;;;5033249;28;20482;-61
2023/12/08 08:59:01;;;;;;;16.88;6.90;;;;;;;;;;5033144;28;20037;-61
2023/12/08 09:01:26;;;;;;;16.10;6.50;;;;;;;;;;5032681;28;20554;-60
2023/12/08 09:03:51;;;;;;;19.57;6.80;;;;;;;;;;5032857;28;20025;-60
2023/12/08 09:06:16;;;;;;;15.20;6.55;;;;;;;;;;5020101;28;20441;-61
2023/12/08 09:08:41;;;;;;;15.85;6.63;;;;;;;;;;5013915;28;20088;-61
2023/12/08 09:11:07;;;;;;;15.03;6.70;;;;;;;;;;5015058;28;20014;-61
2023/12/08 09:13:32;;;;;;;16.27;6.85;;;;;;;;;;5024401;28;20232;-61
2023/12/08 09:15:58;;;;;;;16.27;6.80;;;;;;;;;;5030029;28;20781;-61
2023/12/08 09:18:23;;;;;;;15.07;6.20;;;;;;;;;;5026026;28;20544;-61
2023/12/08 09:20:48;;;;;;;16.13;6.77;;;;;;;;;;5025560;28;20109;-60
2023/12/08 09:23:13;;;;;;;14.60;6.53;;;;;;;;;;5031712;28;20036;-61
2023/12/08 09:25:39;;;;;;;16.08;6.88;;;;;;;;;;5025704;28;20117;-61
2023/12/08 09:28:05;;;;;;;16.95;6.97;;;;;;;;;;5022174;28;20037;-61
2023/12/08 09:30:30;;;;;;;15.70;7.03;;;;;;;;;;5032668;28;20397;-61
2023/12/08 09:32:55;;;;;;;14.40;6.37;;;;;;;;;;5023767;28;20072;-60
2023/12/08 09:35:20;;;;;;;14.65;6.38;;;;;;;;;;5030178;28;20424;-61
2023/12/08 09:37:45;;;;;;;14.70;6.20;;;;;;;;;;5029898;28;20519;-60
2023/12/08 09:40:12;;;;;;;16.57;6.70;;;;;;;;;;5021225;28;20038;-61
2023/12/08 09:42:57;;;;;;;16.02;6.75;;;;;;;;;;5027939;28;20056;-59
2023/12/08 09:45:22;;;;;;;16.58;6.90;;;;;;;;;;5020005;28;20030;-62
2023/12/08 09:47:50;;;;;;;15.23;7.60;;;;;;;;;;5026921;28;20071;-62
2023/12/08 09:50:16;;;;;;;14.88;6.65;;;;;;;;;;5027273;28;20077;-62
2023/12/08 09:52:41;;;;;;;15.13;7.85;;;;;;;;;;5025621;28;20018;-59
2023/12/08 09:55:07;;;;;;;14.38;6.43;;;;;;;;;;5021215;28;20039;-60
2023/12/08 09:57:33;;;;;;;16.50;6.78;;;;;;;;;;5026602;28;20373;-60
2023/12/08 09:59:59;;;;;;;15.77;6.13;;;;;;;;;;5023913;28;20385;-60
2023/12/08 10:02:25;;;;;;;16.73;6.75;;;;;;;;;;5022902;28;20026;-61
2023/12/08 10:04:50;;;;;;;14.77;6.97;;;;;;;;;;5028555;28;20030;-61
2023/12/08 10:07:17;;;;;;;16.02;6.63;;;;;;;;;;5021788;28;20036;-62
2023/12/08 10:09:42;;;;;;;15.30;7.25;;;;;;;;;;5031574;28;20049;-61
2023/12/08 10:12:07;;;;;;;14.97;6.30;;;;;;;;;;5028021;28;20050;-61
2023/12/08 10:14:32;;;;;;;14.07;6.18;;;;;;;;;;5026132;28;20034;-61
2023/12/08 10:16:57;;;;;;;16.47;7.33;;;;;;;;;;5025162;28;20605;-60
2023/12/08 10:19:24;;;;;;;17.83;6.53;;;;;;;;;;5029010;28;20084;-61
2023/12/08 10:22:00;;;;;;;16.65;6.75;;;;;;;;;;5022677;28;20028;-61
2023/12/08 10:24:26;;;;;;;16.05;6.40;;;;;;;;;;5026180;28;20037;-61
2023/12/08 10:26:52;;;;;;;16.70;6.95;;;;;;;;;;5025334;28;20025;-58
2023/12/08 10:29:18;;;;;;;14.95;6.57;;;;;;;;;;5029324;28;20021;-60
2023/12/08 10:31:43;;;;;;;14.70;6.53;;;;;;;;;;5030623;28;20357;-59
2023/12/08 10:34:08;;;;;;;16.15;8.15;;;;;;;;;;5022926;28;20032;-59
2023/12/08 10:36:35;;;;;;;17.73;6.68;;;;;;;;;;5027361;28;20017;-59
2023/12/08 10:39:00;;;;;;;15.07;6.55;;;;;;;;;;5026850;28;20037;-61
2023/12/08 10:41:26;;;;;;;14.53;6.40;;;;;;;;;;5040081;28;20056;-60
2023/12/08 10:43:51;;;;;;;15.43;7.03;;;;;;;;;;5039349;28;20020;-60
2023/12/08 10:46:16;;;;;;;17.98;6.55;;;;;;;;;;5040377;28;20053;-61
2023/12/08 10:48:42;;;;;;;14.23;6.35;;;;;;;;;;5044407;28;20049;-62
2023/12/08 10:51:13;;;;;;;17.85;6.68;;;;;;;;;;5032584;28;20548;-62
2023/12/08 10:53:38;;;;;;;18.17;7.13;;;;;;;;;;5014448;28;20033;-61
2023/12/08 10:56:05;;;;;;;21.07;6.67;;;;;;;;;;5024766;28;20030;-59
2023/12/08 10:58:33;;;;;;;17.70;7.18;;;;;;;;;;5023874;28;20104;-60
2023/12/08 11:01:00;;;;;;;15.30;7.50;;;;;;;;;;5024197;28;20033;-60
2023/12/08 11:03:27;;;;;;;20.50;12.48;;;;;;;;;;5024566;28;20405;-61
2023/12/08 11:05:52;;;;;;;;;;;;;;;;;;5024189;28;20128;-61
2023/12/08 11:08:18;;;;;;;15.43;7.95;;;;;;;;;;5020229;28;19944;-61
2023/12/08 11:10:46;;;;;;;17.70;6.57;;;;;;;;;;5027928;28;20049;-61
2023/12/08 11:13:19;;;;;;;15.20;6.25;;;;;;;;;;5022251;28;20028;-60
2023/12/08 11:15:51;;;;;;;17.50;6.63;;;;;;;;;;5028576;28;20037;-61
2023/12/08 11:18:21;;;;;;;16.02;6.10;;;;;;;;;;5022636;28;20033;-61
2023/12/08 11:20:46;;;;;;;16.25;7.00;;;;;;;;;;5027237;28;20014;-61
2023/12/08 11:23:11;;;;;;;15.57;7.50;;;;;;;;;;5021641;28;20088;-61
2023/12/08 11:25:48;;;;;;;15.17;6.63;;;;;;;;;;5030292;28;20494;-61
2023/12/08 11:28:24;;;;;;;15.40;6.50;;;;;;;;;;5026399;28;20057;-61
2023/12/08 11:31:06;;;;;;;15.60;7.22;;;;;;;;;;5026637;28;20029;-61
2023/12/08 11:33:35;;;;;;;14.60;6.00;;;;;;;;;;5025731;28;20109;-60
2023/12/08 11:36:10;;;;;;;16.70;9.38;;;;;;;;;;5033750;28;20029;-59
2023/12/08 11:38:37;;;;;;;16.45;7.00;;;;;;;;;;5027328;28;20017;-60
2023/12/08 11:41:09;;;;;;;13.95;5.80;;;;;;;;;;5014567;28;20176;-59
2023/12/08 11:43:34;;;;;;;16.20;7.50;;;;;;;;;;5024747;28;20025;-61
2023/12/08 11:46:01;;;;;;;15.90;6.90;;;;;;;;;;5022063;28;20029;-62
2023/12/08 11:48:26;;;;;;;14.70;6.20;;;;;;;;;;5028569;28;20029;-61
2023/12/08 11:50:51;;;;;;;16.80;7.40;;;;;;;;;;5027056;28;20389;-61
2023/12/08 11:53:16;;;;;;;15.67;6.73;;;;;;;;;;5019326;28;20026;-61
2023/12/08 11:55:43;;;;;;;17.83;6.95;;;;;;;;;;5022602;28;20022;-60
2023/12/08 11:58:09;;;;;;;18.65;7.53;;;;;;;;;;5025175;28;20026;-62
2023/12/08 12:00:35;;;;;;;15.10;6.80;;;;;;;;;;5027783;28;20021;-62
2023/12/08 12:03:02;;;;;;;16.08;6.70;;;;;;;;;;5021665;28;20026;-62
2023/12/08 12:05:27;;;;;;;;;;;;;;;;;;5028672;28;20393;-61
2023/12/08 12:07:53;;;;;;;19.43;7.10;;;;;;;;;;5020031;28;19905;-59
2023/12/08 12:10:21;;;;;;;17.17;7.88;;;;;;;;;;5022709;28;20022;-61
2023/12/08 12:12:59;;;;;;;17.77;8.07;;;;;;;;;;5021518;28;20359;-61
2023/12/08 12:15:25;;;;;;;19.50;7.20;;;;;;;;;;5024433;28;20088;-62
2023/12/08 12:17:51;;;;;;;18.10;7.68;;;;;;;;;;5021761;28;20046;-60
2023/12/08 12:20:17;;;;;;;17.52;7.53;;;;;;;;;;5027180;28;20037;-60
2023/12/08 12:22:42;;;;;;;14.75;6.32;;;;;;;;;;5021858;28;20026;-61
2023/12/08 12:25:08;;;;;;;18.10;7.40;;;;;;;;;;5025638;28;20116;-61
2023/12/08 12:27:37;;;;;;;14.23;6.70;;;;;;;;;;5028596;28;20022;-62
2023/12/08 12:30:03;;;;;;;16.90;7.60;;;;;;;;;;5016519;28;20033;-62
2023/12/08 12:32:28;;;;;;;19.63;8.23;;;;;;;;;;5028340;28;20404;-62
2023/12/08 12:34:54;;;;;;;19.63;9.60;;;;;;;;;;5027602;28;20025;-62
2023/12/08 12:37:21;;;;;;;15.73;7.25;;;;;;;;;;5025856;28;20045;-61
2023/12/08 12:39:46;;;;;;;15.60;7.00;;;;;;;;;;5025205;28;20048;-61
2023/12/08 12:42:12;;;;;;;20.42;8.02;;;;;;;;;;5024881;28;20030;-61
2023/12/08 12:44:39;;;;;;;17.67;7.53;;;;;;;;;;5016745;28;20397;-61
2023/12/08 12:47:04;;;;;;;19.17;7.63;;;;;;;;;;5024128;28;20021;-60
2023/12/08 12:49:29;;;;;;;17.38;6.82;;;;;;;;;;5027896;28;20028;-62
2023/12/08 12:51:54;;;;;;;16.50;8.13;;;;;;;;;;5027353;28;20029;-61
2023/12/08 12:54:34;;;;;;;14.60;7.15;;;;;;;;;;5029437;28;20041;-61
2023/12/08 12:56:59;;;;;;;17.58;7.25;;;;;;;;;;5028079;28;20049;-61
2023/12/08 12:59:24;;;;;;;17.57;7.70;;;;;;;;;;5028670;28;20067;-61
2023/12/08 13:01:50;;;;;;;17.20;7.32;;;;;;;;;;5027384;28;20025;-62
2023/12/08 13:04:15;;;;;;;19.15;8.30;;;;;;;;;;5028652;28;20482;-61
2023/12/08 13:06:40;;;;;;;18.33;7.60;;;;;;;;;;5026238;28;20028;-60
2023/12/08 13:09:05;;;;;;;19.73;7.35;;;;;;;;;;5028475;28;20499;-61
2023/12/08 13:11:30;;;;;;;18.13;8.07;;;;;;;;;;5024279;28;20330;-60
2023/12/08 13:13:56;;;;;;;21.20;8.23;;;;;;;;;;5031909;28;20397;-60
2023/12/08 13:16:21;;;;;;;18.23;8.63;;;;;;;;;;5026692;28;20042;-61
2023/12/08 13:18:47;;;;;;;14.95;7.60;;;;;;;;;;5030161;28;20017;-61
2023/12/08 13:21:12;;;;;;;17.05;7.60;;;;;;;;;;5024790;28;20100;-61
2023/12/08 13:23:38;;;;;;;15.15;7.13;;;;;;;;;;5031479;28;20380;-60
2023/12/08 13:26:04;;;;;;;18.35;7.50;;;;;;;;;;5023959;28;20024;-61
2023/12/08 13:28:29;;;;;;;17.55;8.48;;;;;;;;;;5025363;28;20405;-61
2023/12/08 13:30:55;;;;;;;19.48;9.70;;;;;;;;;;5032602;28;20030;-61
2023/12/08 13:33:21;;;;;;;22.93;9.90;;;;;;;;;;5028389;28;20043;-60
2023/12/08 13:35:47;;;;;;;17.65;6.95;;;;;;;;;;5033116;28;20571;-60
2023/12/08 13:38:12;;;;;;;15.63;7.33;;;;;;;;;;5024460;28;20545;-61
2023/12/08 13:40:37;;;;;;;15.90;7.30;;;;;;;;;;5027528;28;20020;-61
2023/12/08 13:43:02;;;;;;;15.07;7.60;;;;;;;;;;5024019;28;20393;-61
2023/12/08 13:45:27;;;;;;;15.48;6.93;;;;;;;;;;5028059;28;20022;-61
2023/12/08 13:47:53;;;;;;;17.25;7.63;;;;;;;;;;5029304;28;20112;-62
2023/12/08 13:50:18;;;;;;;19.67;7.68;;;;;;;;;;5021388;28;20456;-61
2023/12/08 13:52:43;;;;;;;16.75;7.88;;;;;;;;;;5015640;28;20046;-61
2023/12/08 13:55:08;;;;;;;18.37;7.97;;;;;;;;;;5009718;28;20113;-61
2023/12/08 13:57:33;;;;;;;16.98;7.78;;;;;;;;;;5012216;28;20080;-62
2023/12/08 13:59:58;;;;;;;17.25;8.10;;;;;;;;;;5015075;28;20034;-62
2023/12/08 14:02:23;;;;;;;17.17;7.75;;;;;;;;;;5016232;28;20037;-62
2023/12/08 14:04:49;;;;;;;17.30;7.40;;;;;;;;;;5011421;28;20029;-61
2023/12/08 14:07:14;;;;;;;17.17;7.87;;;;;;;;;;5012356;28;20560;-61
2023/12/08 14:09:39;;;;;;;18.67;8.27;;;;;;;;;;5027316;28;20089;-62
2023/12/08 14:12:04;;;;;;;19.02;8.32;;;;;;;;;;5019947;28;20047;-61
2023/12/08 14:14:29;;;;;;;18.77;7.87;;;;;;;;;;5021584;28;20437;-59
2023/12/08 14:16:54;;;;;;;17.48;7.85;;;;;;;;;;5028252;28;20452;-61